Time;durP1;ratioP1;P1;durP2;ratioP2;P2;SDS_P1;SDS_P2;PMS_P1;PMS_P2;Temp;Humidity;BMP_temperature;BMP_pressure;BME280_temperature;BME280_humidity;BME280_pressure;Samples;Min_cycle;Max_cycle;Signal;HPM_P1;HPM_P2
2023/03/12 00:00:48;;;;;;;10.48;2.65;;;15.50;91.90;;;;;;7381467;19;19964;-74
2023/03/12 00:03:14;;;;;;;9.38;2.45;;;15.40;91.90;;;;;;7404686;19;19918;-72
2023/03/12 00:05:42;;;;;;;9.90;2.50;;;15.50;92.10;;;;;;7406611;19;20342;-73
2023/03/12 00:08:08;;;;;;;10.15;2.38;;;15.40;92.00;;;;;;7403886;19;19947;-74
2023/03/12 00:10:34;;;;;;;;;;;15.40;92.10;;;;;;7408030;19;19930;-73
2023/03/12 00:13:00;;;;;;;8.45;2.50;;;15.50;92.00;;;;;;7408087;19;19977;-75
2023/03/12 00:15:27;;;;;;;10.52;3.05;;;15.40;92.00;;;;;;7403560;19;19924;-73
2023/03/12 00:17:53;;;;;;;10.60;2.28;;;15.40;92.10;;;;;;7406024;19;19922;-75
2023/03/12 00:20:20;;;;;;;7.40;2.08;;;15.40;92.30;;;;;;7404880;19;19914;-74
2023/03/12 00:22:46;;;;;;;9.77;2.47;;;15.40;92.10;;;;;;7376230;19;19949;-74
2023/03/12 00:25:14;;;;;;;9.63;2.17;;;15.50;92.10;;;;;;7406148;19;20021;-75
2023/03/12 00:27:41;;;;;;;7.43;2.17;;;15.50;92.20;;;;;;7407551;19;19923;-74
2023/03/12 00:30:09;;;;;;;8.75;2.15;;;15.40;92.20;;;;;;7400638;19;19911;-72
2023/03/12 00:32:36;;;;;;;11.55;2.90;;;15.30;92.20;;;;;;7402898;19;19923;-73
2023/03/12 00:35:05;;;;;;;6.53;2.35;;;15.30;92.40;;;;;;7402314;19;20255;-74
2023/03/12 00:37:32;;;;;;;7.43;2.53;;;15.30;92.50;;;;;;7403010;19;20497;-73
2023/03/12 00:39:58;;;;;;;9.13;2.47;;;15.20;92.70;;;;;;7373374;19;19930;-74
2023/03/12 00:42:24;;;;;;;6.78;1.77;;;15.20;92.90;;;;;;7404871;19;19923;-75
2023/03/12 00:44:50;;;;;;;10.48;2.40;;;15.20;92.90;;;;;;7401218;19;19907;-74
2023/03/12 00:47:16;;;;;;;9.48;2.70;;;15.20;93.00;;;;;;7403104;19;20541;-73
2023/03/12 00:49:41;;;;;;;10.77;2.22;;;15.20;93.20;;;;;;7406227;19;19922;-74
2023/03/12 00:52:07;;;;;;;9.43;2.75;;;15.30;93.00;;;;;;7368536;19;19933;-74
2023/03/12 00:54:33;;;;;;;9.65;2.15;;;15.30;93.00;;;;;;7406624;19;19933;-73
2023/03/12 00:56:59;;;;;;;11.10;2.90;;;15.30;93.00;;;;;;7403955;19;19928;-73
2023/03/12 00:59:25;;;;;;;9.55;2.28;;;15.30;92.90;;;;;;7403361;19;20335;-73
2023/03/12 01:01:51;;;;;;;9.98;3.58;;;15.20;92.90;;;;;;7403111;19;19915;-74
2023/03/12 01:04:17;;;;;;;9.27;2.35;;;15.30;93.10;;;;;;7402935;19;19931;-73
2023/03/12 01:06:43;;;;;;;11.02;2.22;;;15.30;93.00;;;;;;7404730;19;19929;-74
2023/03/12 01:09:09;;;;;;;10.48;2.85;;;15.20;92.90;;;;;;7402447;19;19923;-73
2023/03/12 01:11:36;;;;;;;10.52;2.22;;;15.20;93.10;;;;;;7401247;19;19939;-74
2023/03/12 01:14:07;;;;;;;7.32;2.30;;;15.10;93.30;;;;;;7403447;19;19918;-75
2023/03/12 01:16:33;;;;;;;7.10;2.20;;;15.00;93.40;;;;;;7400728;19;19915;-73
2023/03/12 01:19:01;;;;;;;8.70;2.30;;;15.10;93.70;;;;;;7406488;19;19922;-73
2023/03/12 01:21:28;;;;;;;7.50;1.98;;;15.10;93.60;;;;;;7381257;19;19993;-73
2023/03/12 01:23:56;;;;;;;8.27;2.10;;;15.10;93.70;;;;;;7403553;19;19946;-73
2023/03/12 01:26:22;;;;;;;10.75;2.00;;;15.10;93.60;;;;;;7402723;19;19910;-74
2023/03/12 01:28:49;;;;;;;9.60;2.33;;;15.20;93.60;;;;;;7405910;19;19994;-73
2023/03/12 01:31:17;;;;;;;10.77;2.50;;;15.10;93.50;;;;;;7402748;19;19919;-74
2023/03/12 01:33:46;;;;;;;10.63;2.30;;;15.10;93.60;;;;;;7405873;19;19918;-74
2023/03/12 01:36:16;;;;;;;10.63;2.58;;;15.00;93.80;;;;;;7397951;19;20327;-74
2023/03/12 01:38:42;;;;;;;15.38;2.97;;;15.10;94.10;;;;;;7365063;19;19948;-74
2023/03/12 01:41:10;;;;;;;8.57;2.60;;;15.20;94.00;;;;;;7401791;19;19922;-73
2023/03/12 01:43:37;;;;;;;12.02;2.72;;;15.20;93.90;;;;;;7403828;19;19915;-74
2023/03/12 01:46:15;;;;;;;9.25;3.10;;;15.20;93.70;;;;;;7404603;19;19936;-73
2023/03/12 01:48:48;;;;;;;9.45;2.83;;;15.10;93.80;;;;;;7405337;19;19922;-74
2023/03/12 01:51:17;;;;;;;9.60;2.75;;;15.20;93.90;;;;;;7401443;19;19926;-73
2023/03/12 01:53:46;;;;;;;12.88;2.83;;;15.30;93.70;;;;;;7404271;19;19918;-74
2023/03/12 01:56:14;;;;;;;9.63;2.00;;;15.30;93.60;;;;;;7399457;19;19914;-74
2023/03/12 01:58:45;;;;;;;11.63;2.55;;;15.40;93.60;;;;;;7401626;19;19918;-74
2023/03/12 02:01:11;;;;;;;8.32;2.05;;;15.40;93.50;;;;;;7402221;19;20292;-76
2023/03/12 02:03:37;;;;;;;5.53;1.65;;;15.30;93.60;;;;;;7400424;19;19910;-73
2023/03/12 02:06:07;;;;;;;4.75;1.30;;;15.70;93.30;;;;;;7402233;19;20023;-74
2023/03/12 02:08:40;;;;;;;3.45;1.10;;;15.80;93.40;;;;;;7401365;19;19922;-74
2023/03/12 02:11:06;;;;;;;4.88;1.25;;;16.10;92.90;;;;;;7399665;19;19918;-74
2023/03/12 02:13:32;;;;;;;5.43;1.60;;;16.30;92.60;;;;;;7401391;19;19954;-73
2023/03/12 02:15:58;;;;;;;3.25;0.95;;;16.20;92.30;;;;;;7400926;19;19918;-73
2023/03/12 02:18:24;;;;;;;5.75;1.88;;;16.20;92.90;;;;;;7402178;19;19915;-73
2023/03/12 02:21:08;;;;;;;5.35;1.70;;;16.20;92.40;;;;;;7402323;19;19998;-73
2023/03/12 02:23:43;;;;;;;3.60;1.23;;;16.10;92.40;;;;;;7400703;19;19910;-72
2023/03/12 02:26:11;;;;;;;6.68;1.65;;;16.00;92.70;;;;;;7400785;19;19915;-73
2023/03/12 02:28:42;;;;;;;5.53;1.25;;;15.90;92.50;;;;;;7402129;19;19919;-73
2023/03/12 02:31:11;;;;;;;2.05;0.73;;;16.20;92.60;;;;;;7401299;19;19933;-74
2023/03/12 02:33:37;;;;;;;2.05;0.88;;;16.60;92.30;;;;;;7402287;19;19927;-73
2023/03/12 02:36:03;;;;;;;2.00;0.50;;;17.00;91.70;;;;;;7400885;19;19932;-74
2023/03/12 02:38:37;;;;;;;1.77;0.47;;;17.10;91.70;;;;;;7402406;19;20534;-75
2023/03/12 02:41:19;;;;;;;5.38;0.60;;;17.20;91.40;;;;;;7400207;19;20259;-73
2023/03/12 02:43:55;;;;;;;1.88;0.63;;;17.20;91.50;;;;;;7400782;19;20363;-73
2023/03/12 02:46:21;;;;;;;1.63;0.50;;;17.20;91.30;;;;;;7401652;19;20031;-74
2023/03/12 02:48:47;;;;;;;2.58;0.50;;;17.20;91.40;;;;;;7402691;19;19926;-73
2023/03/12 02:51:13;;;;;;;2.13;0.43;;;17.30;91.20;;;;;;7400311;19;19915;-74
2023/03/12 02:53:39;;;;;;;0.90;0.40;;;17.40;90.90;;;;;;7400302;19;19922;-73
2023/03/12 02:56:05;;;;;;;2.70;0.60;;;17.50;90.90;;;;;;7378192;19;19918;-73
2023/03/12 02:58:31;;;;;;;1.38;0.60;;;17.50;90.80;;;;;;7401759;19;19922;-74
2023/03/12 03:00:57;;;;;;;1.13;0.52;;;17.50;90.70;;;;;;7398475;19;19999;-74
2023/03/12 03:03:23;;;;;;;1.23;0.50;;;17.50;90.50;;;;;;7398170;19;20335;-73
2023/03/12 03:05:49;;;;;;;0.98;0.50;;;17.60;90.40;;;;;;7403200;19;19930;-73
2023/03/12 03:08:14;;;;;;;1.00;0.52;;;17.60;90.30;;;;;;7370299;19;19918;-74
2023/03/12 03:10:40;;;;;;;1.50;0.52;;;17.60;90.20;;;;;;7407154;19;19921;-73
2023/03/12 03:13:06;;;;;;;1.75;0.73;;;17.60;90.30;;;;;;7403756;19;19922;-74
2023/03/12 03:15:32;;;;;;;1.23;0.50;;;17.60;90.20;;;;;;7405155;19;19915;-73
2023/03/12 03:17:58;;;;;;;1.95;0.60;;;17.60;90.10;;;;;;7409274;19;19915;-74
2023/03/12 03:20:25;;;;;;;0.93;0.45;;;17.70;89.70;;;;;;7406552;19;19914;-74
2023/03/12 03:22:51;;;;;;;1.42;0.40;;;17.80;89.40;;;;;;7404155;19;19926;-73
2023/03/12 03:25:21;;;;;;;4.53;0.68;;;17.70;89.50;;;;;;7407340;19;19986;-73
2023/03/12 03:27:46;;;;;;;1.77;0.60;;;17.70;89.60;;;;;;7406484;19;19935;-73
2023/03/12 03:30:12;;;;;;;2.83;0.57;;;17.70;89.80;;;;;;7404633;19;20440;-72
2023/03/12 03:32:38;;;;;;;2.15;0.52;;;17.70;89.60;;;;;;7407860;19;19907;-73
2023/03/12 03:35:04;;;;;;;1.50;0.40;;;17.60;89.80;;;;;;7404682;19;19926;-73
2023/03/12 03:37:30;;;;;;;2.20;0.50;;;17.50;90.20;;;;;;7407875;19;20269;-74
2023/03/12 03:39:56;;;;;;;4.60;0.80;;;17.40;90.10;;;;;;7405970;19;19911;-73
2023/03/12 03:42:22;;;;;;;1.75;0.65;;;17.30;90.40;;;;;;7405122;19;20003;-73
2023/03/12 03:44:48;;;;;;;1.80;0.70;;;17.30;90.60;;;;;;7406235;19;19918;-73
2023/03/12 03:47:13;;;;;;;1.65;0.50;;;17.30;90.60;;;;;;7405059;19;19918;-74
2023/03/12 03:49:39;;;;;;;2.47;0.52;;;17.20;90.70;;;;;;7407774;19;19922;-73
2023/03/12 03:52:06;;;;;;;2.60;0.70;;;17.00;90.90;;;;;;7407262;19;19921;-73
2023/03/12 03:54:32;;;;;;;2.70;0.80;;;16.90;91.10;;;;;;7406365;19;19910;-73
2023/03/12 03:56:59;;;;;;;2.13;0.68;;;16.70;91.40;;;;;;7405849;19;19951;-74
2023/03/12 03:59:25;;;;;;;3.28;0.70;;;16.60;91.70;;;;;;7405271;19;19917;-73
2023/03/12 04:01:51;;;;;;;2.85;0.80;;;16.50;91.80;;;;;;7408083;19;20988;-73
2023/03/12 04:04:18;;;;;;;1.67;0.57;;;16.40;92.10;;;;;;7403559;19;19926;-74
2023/03/12 04:06:44;;;;;;;2.55;0.80;;;16.40;92.10;;;;;;7405992;19;19919;-74
2023/03/12 04:09:10;;;;;;;1.85;0.60;;;16.20;92.60;;;;;;7402687;19;19914;-72
2023/03/12 04:11:35;;;;;;;3.05;0.65;;;16.10;92.50;;;;;;7401308;19;19919;-74
2023/03/12 04:14:01;;;;;;;2.05;0.75;;;16.00;92.90;;;;;;7405443;19;19907;-73
2023/03/12 04:16:27;;;;;;;2.75;0.70;;;16.00;92.70;;;;;;7402797;19;19943;-72
2023/03/12 04:18:53;;;;;;;5.03;1.00;;;15.90;92.70;;;;;;7405326;19;20328;-74
2023/03/12 04:21:19;;;;;;;3.10;0.98;;;15.90;93.00;;;;;;7404526;19;19939;-74
2023/03/12 04:23:45;;;;;;;4.90;1.38;;;15.80;93.10;;;;;;7406020;19;19914;-73
2023/03/12 04:26:12;;;;;;;3.35;0.90;;;15.80;93.10;;;;;;7402831;19;19925;-73
2023/03/12 04:28:38;;;;;;;5.82;1.30;;;15.70;93.20;;;;;;7407008;19;20339;-74
2023/03/12 04:31:09;;;;;;;3.75;1.15;;;15.70;93.60;;;;;;7391523;19;19923;-74
2023/03/12 04:33:39;;;;;;;2.88;0.98;;;15.60;93.50;;;;;;7402387;19;19915;-73
2023/03/12 04:36:06;;;;;;;3.38;1.00;;;15.60;93.70;;;;;;7397410;19;19918;-73
2023/03/12 04:38:32;;;;;;;;;;;15.50;93.70;;;;;;7406744;19;19919;-73
2023/03/12 04:41:03;;;;;;;3.92;1.30;;;15.50;93.60;;;;;;7403358;19;19926;-73
2023/03/12 04:43:30;;;;;;;2.60;0.80;;;15.50;93.70;;;;;;7405649;19;19925;-74
2023/03/12 04:45:56;;;;;;;2.90;1.08;;;15.50;93.70;;;;;;7406539;19;19934;-74
2023/03/12 04:48:23;;;;;;;3.35;1.30;;;15.50;93.70;;;;;;7402422;19;19946;-73
2023/03/12 04:50:49;;;;;;;3.28;1.05;;;15.50;93.70;;;;;;7403200;19;19933;-73
2023/03/12 04:53:15;;;;;;;4.70;1.33;;;15.50;93.80;;;;;;7372507;19;20242;-73
2023/03/12 04:55:41;;;;;;;3.38;1.20;;;15.40;93.90;;;;;;7404306;19;19990;-73
2023/03/12 04:58:07;;;;;;;5.05;1.52;;;15.40;94.00;;;;;;7404332;19;19977;-73
2023/03/12 05:00:34;;;;;;;6.20;1.95;;;15.30;93.80;;;;;;7372720;19;19929;-74
2023/03/12 05:03:00;;;;;;;7.90;2.22;;;15.20;93.80;;;;;;7406120;19;20542;-73
2023/03/12 05:05:25;;;;;;;8.73;2.13;;;14.90;94.00;;;;;;7405321;19;19915;-73
2023/03/12 05:07:51;;;;;;;6.53;2.10;;;14.90;94.20;;;;;;7405143;19;19915;-74
2023/03/12 05:10:17;;;;;;;5.95;1.90;;;14.80;94.40;;;;;;7404037;19;19917;-73
2023/03/12 05:12:43;;;;;;;7.97;1.90;;;14.70;94.60;;;;;;7405412;19;19918;-73
2023/03/12 05:15:09;;;;;;;5.88;1.92;;;14.70;94.80;;;;;;7405607;19;19990;-74
2023/03/12 05:17:35;;;;;;;6.20;2.10;;;14.70;94.90;;;;;;7405637;19;19914;-73
2023/03/12 05:20:01;;;;;;;5.32;1.60;;;14.60;95.00;;;;;;7406591;19;20335;-73
2023/03/12 05:22:27;;;;;;;7.07;1.90;;;14.60;94.90;;;;;;7404833;19;19958;-75
2023/03/12 05:24:52;;;;;;;7.82;2.20;;;14.50;95.20;;;;;;7404960;19;20383;-74
2023/03/12 05:27:19;;;;;;;5.65;1.63;;;14.40;95.30;;;;;;7400198;19;19990;-73
2023/03/12 05:29:45;;;;;;;7.43;1.95;;;14.30;95.40;;;;;;7404295;19;19915;-74
2023/03/12 05:32:10;;;;;;;5.28;1.80;;;14.30;95.60;;;;;;7402326;19;19930;-73
2023/03/12 05:34:36;;;;;;;5.30;2.00;;;14.30;95.70;;;;;;7404548;19;19922;-73
2023/03/12 05:37:04;;;;;;;7.35;1.75;;;14.30;96.00;;;;;;7372075;19;20342;-73
2023/03/12 05:39:30;;;;;;;6.28;1.90;;;14.30;96.20;;;;;;7372196;19;19923;-72
2023/03/12 05:41:56;;;;;;;6.72;1.70;;;14.20;96.40;;;;;;7406210;19;19933;-73
2023/03/12 05:44:23;;;;;;;8.10;1.92;;;14.20;96.90;;;;;;7404752;19;19934;-74
2023/03/12 05:46:51;;;;;;;7.88;1.55;;;14.10;97.10;;;;;;7404502;19;19939;-73
2023/03/12 05:49:17;;;;;;;6.97;2.25;;;14.20;97.30;;;;;;7401028;19;19929;-73
2023/03/12 05:51:43;;;;;;;10.80;2.72;;;14.10;97.50;;;;;;7405891;19;20280;-73
2023/03/12 05:54:09;;;;;;;7.97;1.85;;;14.10;97.70;;;;;;7401700;19;19919;-73
2023/03/12 05:56:38;;;;;;;8.60;2.03;;;14.10;98.40;;;;;;7402007;19;19919;-74
2023/03/12 05:59:04;;;;;;;11.52;2.30;;;14.10;98.60;;;;;;7403434;19;19927;-74
2023/03/12 06:01:31;;;;;;;7.85;1.88;;;14.10;98.80;;;;;;7406092;19;19930;-73
2023/03/12 06:03:57;;;;;;;9.35;2.03;;;14.10;98.90;;;;;;7403625;19;19955;-72
2023/03/12 06:06:23;;;;;;;9.82;2.13;;;14.10;99.40;;;;;;7402949;19;20304;-73
2023/03/12 06:08:51;;;;;;;11.98;2.00;;;14.10;99.80;;;;;;7404798;19;19931;-75
2023/03/12 06:11:17;;;;;;;7.97;1.70;;;14.10;99.60;;;;;;7400678;19;19938;-73
2023/03/12 06:13:43;;;;;;;12.20;1.83;;;14.10;99.80;;;;;;7404052;19;19929;-73
2023/03/12 06:16:15;;;;;;;8.80;2.10;;;14.20;99.70;;;;;;7399689;19;19911;-74
2023/03/12 06:18:41;;;;;;;7.60;1.67;;;14.10;99.70;;;;;;7402053;19;20698;-73
2023/03/12 06:21:12;;;;;;;10.38;2.28;;;14.20;99.40;;;;;;7401197;19;19934;-72
2023/03/12 06:23:38;;;;;;;9.70;1.90;;;14.30;99.10;;;;;;7404564;19;19923;-72
2023/03/12 06:26:05;;;;;;;10.02;1.90;;;14.30;98.90;;;;;;7402719;19;19918;-72
2023/03/12 06:28:32;;;;;;;8.13;1.63;;;14.30;98.70;;;;;;7402120;19;19919;-73
2023/03/12 06:30:57;;;;;;;6.75;1.70;;;14.40;98.50;;;;;;7369620;19;19910;-72
2023/03/12 06:33:23;;;;;;;7.85;2.00;;;14.40;98.20;;;;;;7402172;19;19940;-73
2023/03/12 06:35:53;;;;;;;5.68;1.55;;;14.40;98.20;;;;;;7399267;19;20387;-73
2023/03/12 06:38:19;;;;;;;7.18;1.90;;;14.50;98.20;;;;;;7400132;19;19944;-72
2023/03/12 06:40:59;;;;;;;7.75;1.98;;;14.50;98.10;;;;;;7403957;19;19915;-73
2023/03/12 06:43:27;;;;;;;8.10;1.65;;;14.50;98.00;;;;;;7406729;19;19929;-74
2023/03/12 06:45:57;;;;;;;9.32;1.80;;;14.60;97.90;;;;;;7410039;19;19926;-73
2023/03/12 06:48:26;;;;;;;6.82;1.40;;;14.60;97.80;;;;;;7408718;19;19951;-73
2023/03/12 06:50:52;;;;;;;10.43;2.10;;;14.70;97.70;;;;;;7405999;19;20359;-71
2023/03/12 06:53:19;;;;;;;10.82;2.03;;;14.80;97.50;;;;;;7407869;19;19942;-72
2023/03/12 06:55:45;;;;;;;9.10;1.92;;;14.80;97.50;;;;;;7408804;19;19935;-73
2023/03/12 06:58:12;;;;;;;10.70;1.90;;;14.80;97.40;;;;;;7408279;19;20638;-72
2023/03/12 07:00:38;;;;;;;9.20;1.65;;;14.80;97.50;;;;;;7409576;19;19918;-73
2023/03/12 07:03:04;;;;;;;11.48;2.53;;;14.80;97.60;;;;;;7408073;19;19911;-73
2023/03/12 07:05:30;;;;;;;11.63;2.40;;;14.90;97.60;;;;;;7404340;19;19914;-72
2023/03/12 07:07:56;;;;;;;9.48;1.70;;;15.00;97.70;;;;;;7410730;19;19942;-72
2023/03/12 07:10:22;;;;;;;8.32;1.83;;;15.10;97.60;;;;;;7408525;19;19923;-72
2023/03/12 07:12:48;;;;;;;9.70;1.85;;;15.10;97.70;;;;;;7409442;19;20362;-77
2023/03/12 07:15:14;;;;;;;8.80;2.05;;;15.20;97.60;;;;;;7407590;19;19918;-72
2023/03/12 07:17:40;;;;;;;10.52;1.55;;;15.30;97.40;;;;;;7408502;19;20426;-72
2023/03/12 07:20:07;;;;;;;6.88;1.70;;;15.30;97.30;;;;;;7408594;19;20281;-72
2023/03/12 07:22:33;;;;;;;7.25;1.55;;;15.30;97.20;;;;;;7409556;19;20342;-72
2023/03/12 07:24:59;;;;;;;11.43;1.85;;;15.40;97.00;;;;;;7408076;19;19994;-72
2023/03/12 07:27:24;;;;;;;11.52;1.88;;;15.50;96.90;;;;;;7407918;19;19982;-73
2023/03/12 07:29:51;;;;;;;9.48;2.67;;;15.50;96.80;;;;;;7407888;19;20019;-73
2023/03/12 07:32:17;;;;;;;;;;;15.60;96.80;;;;;;7407168;19;19918;-74
2023/03/12 07:34:43;;;;;;;10.45;2.72;;;15.60;96.70;;;;;;7410168;19;19922;-73
2023/03/12 07:37:09;;;;;;;6.55;2.05;;;15.60;96.50;;;;;;7403782;19;19914;-74
2023/03/12 07:39:35;;;;;;;10.70;2.30;;;15.70;96.50;;;;;;7405607;19;19926;-74
2023/03/12 07:42:01;;;;;;;11.93;1.85;;;15.80;96.40;;;;;;7406886;19;19987;-73
2023/03/12 07:44:26;;;;;;;9.80;2.30;;;15.80;96.60;;;;;;7404368;19;20264;-74
2023/03/12 07:46:52;;;;;;;9.82;2.08;;;15.90;96.60;;;;;;7407454;19;19911;-74
2023/03/12 07:49:19;;;;;;;8.32;2.50;;;15.90;96.60;;;;;;7407023;19;19911;-73
2023/03/12 07:51:45;;;;;;;11.05;2.42;;;16.00;96.60;;;;;;7409228;19;19928;-73
2023/03/12 07:54:11;;;;;;;9.50;2.30;;;16.00;96.50;;;;;;7404733;19;19998;-74
2023/03/12 07:56:37;;;;;;;10.45;2.30;;;16.10;96.70;;;;;;7408238;19;20292;-73
2023/03/12 07:59:03;;;;;;;10.48;1.98;;;16.10;96.60;;;;;;7405731;19;19923;-74
2023/03/12 08:01:33;;;;;;;11.35;2.58;;;16.20;96.50;;;;;;7401192;19;20914;-73
2023/03/12 08:03:58;;;;;;;12.02;2.80;;;16.30;96.50;;;;;;7408186;19;20323;-74
2023/03/12 08:06:25;;;;;;;13.05;2.45;;;16.40;96.50;;;;;;7410613;19;19935;-75
2023/03/12 08:08:51;;;;;;;10.52;2.42;;;16.50;96.50;;;;;;7407540;19;19941;-73
2023/03/12 08:11:17;;;;;;;11.90;2.38;;;16.60;96.50;;;;;;7406887;19;19918;-73
2023/03/12 08:13:43;;;;;;;16.63;2.35;;;16.60;96.50;;;;;;7406471;19;20343;-73
2023/03/12 08:16:09;;;;;;;8.65;2.50;;;16.70;96.40;;;;;;7403342;19;19917;-72
2023/03/12 08:18:35;;;;;;;10.88;2.10;;;16.80;96.40;;;;;;7407698;19;19914;-73
2023/03/12 08:21:00;;;;;;;11.82;2.05;;;16.80;96.10;;;;;;7407456;19;19914;-74
2023/03/12 08:23:26;;;;;;;11.30;2.13;;;16.90;96.00;;;;;;7406187;19;20027;-74
2023/03/12 08:25:53;;;;;;;12.40;2.63;;;17.00;95.90;;;;;;7408696;19;19995;-74
2023/03/12 08:28:21;;;;;;;11.95;2.70;;;17.10;95.90;;;;;;7406130;19;19919;-73
2023/03/12 08:30:49;;;;;;;11.05;2.40;;;17.20;95.90;;;;;;7404921;19;19970;-75
2023/03/12 08:33:15;;;;;;;10.73;2.60;;;17.20;95.80;;;;;;7405556;19;19918;-73
2023/03/12 08:35:41;;;;;;;13.30;2.45;;;17.30;95.70;;;;;;7404184;19;19918;-72
2023/03/12 08:38:07;;;;;;;10.80;2.38;;;17.50;95.60;;;;;;7402383;19;19930;-73
2023/03/12 08:40:33;;;;;;;10.80;2.38;;;19.20;94.10;;;;;;7401697;19;20269;-72
2023/03/12 08:42:59;;;;;;;12.13;2.63;;;20.70;91.50;;;;;;7405550;19;19922;-74
2023/03/12 08:45:24;;;;;;;9.43;2.50;;;21.50;88.80;;;;;;7404694;19;19929;-74
2023/03/12 08:47:50;;;;;;;11.35;2.40;;;22.20;86.80;;;;;;7406650;19;19926;-74
2023/03/12 08:50:16;;;;;;;9.77;2.47;;;22.50;85.80;;;;;;7407153;19;19990;-73
2023/03/12 08:52:43;;;;;;;9.13;2.45;;;22.40;85.50;;;;;;7408439;19;19942;-74
2023/03/12 08:55:11;;;;;;;10.18;2.35;;;23.00;84.70;;;;;;7398994;19;19922;-74
2023/03/12 08:57:37;;;;;;;10.18;2.60;;;23.30;83.00;;;;;;7403022;19;19970;-76
2023/03/12 09:00:13;;;;;;;11.02;2.97;;;23.60;83.00;;;;;;7405590;19;20272;-74
2023/03/12 09:02:42;;;;;;;12.50;2.75;;;24.10;82.40;;;;;;7408121;19;20003;-74
2023/03/12 09:05:08;;;;;;;10.95;3.33;;;24.60;80.80;;;;;;7403541;19;20027;-75
2023/03/12 09:07:33;;;;;;;13.23;3.10;;;24.20;80.80;;;;;;7403805;19;19923;-73
2023/03/12 09:09:59;;;;;;;10.55;3.22;;;25.30;80.10;;;;;;7405094;19;20542;-76
2023/03/12 09:12:25;;;;;;;11.45;3.30;;;25.00;79.20;;;;;;7406457;19;19986;-76
2023/03/12 09:14:51;;;;;;;11.90;2.80;;;25.10;79.90;;;;;;7404910;19;19919;-75
2023/03/12 09:17:18;;;;;;;14.70;3.08;;;24.60;79.20;;;;;;7403688;19;19915;-74
2023/03/12 09:19:44;;;;;;;11.35;2.80;;;25.00;78.80;;;;;;7406548;19;19914;-74
2023/03/12 09:22:10;;;;;;;12.55;2.63;;;25.10;79.20;;;;;;7404930;19;20339;-73
2023/03/12 09:24:36;;;;;;;10.57;2.65;;;24.10;79.70;;;;;;7404465;19;19919;-75
2023/03/12 09:27:03;;;;;;;11.05;2.65;;;25.40;78.70;;;;;;7403266;19;19918;-75
2023/03/12 09:29:30;;;;;;;16.33;3.22;;;24.50;77.90;;;;;;7404090;19;19914;-75
2023/03/12 09:31:56;;;;;;;14.82;3.50;;;24.30;80.00;;;;;;7404828;19;19918;-74
2023/03/12 09:34:22;;;;;;;9.68;2.20;;;24.20;79.80;;;;;;7404681;19;19942;-75
2023/03/12 09:36:48;;;;;;;13.05;2.75;;;24.30;80.10;;;;;;7404174;19;20440;-74
2023/03/12 09:39:14;;;;;;;9.02;2.60;;;25.00;78.40;;;;;;7404504;19;19914;-74
2023/03/12 09:41:43;;;;;;;10.73;3.08;;;25.30;77.80;;;;;;7403661;19;19960;-75
2023/03/12 09:44:49;;;;;;;12.13;2.83;;;24.50;78.60;;;;;;7403650;19;20300;-75
2023/03/12 09:47:36;;;;;;;12.98;2.80;;;24.30;79.00;;;;;;7398083;19;21248;-75
2023/03/12 09:50:42;;;;;;;12.30;2.90;;;24.60;78.50;;;;;;7401812;19;19918;-75
2023/03/12 09:53:43;;;;;;;11.00;2.70;;;24.30;79.30;;;;;;7379014;19;19918;-74
2023/03/12 09:56:14;;;;;;;9.93;3.15;;;23.90;79.60;;;;;;7403389;19;19922;-75
2023/03/12 09:58:42;;;;;;;9.75;2.75;;;23.40;80.60;;;;;;7406285;19;19919;-74
2023/03/12 10:01:09;;;;;;;11.50;2.88;;;23.20;80.80;;;;;;7403404;19;19915;-74
2023/03/12 10:03:44;;;;;;;12.63;3.28;;;22.30;83.50;;;;;;7406316;19;19910;-74
2023/03/12 10:06:19;;;;;;;12.55;2.63;;;22.20;84.60;;;;;;7404184;19;20256;-74
2023/03/12 10:09:06;;;;;;;10.55;2.38;;;22.20;84.60;;;;;;7405228;19;19939;-76
2023/03/12 10:11:50;;;;;;;15.45;2.53;;;22.10;84.40;;;;;;7402677;19;19919;-74
2023/03/12 10:14:32;;;;;;;12.60;2.72;;;21.90;84.50;;;;;;7402878;19;19927;-72
2023/03/12 10:17:06;;;;;;;14.80;5.38;;;22.00;85.10;;;;;;7402600;19;20336;-73
2023/03/12 10:19:35;;;;;;;9.75;2.60;;;22.20;84.40;;;;;;7406900;19;19915;-73
2023/03/12 10:22:10;;;;;;;11.88;2.83;;;22.60;84.20;;;;;;7405935;19;19914;-73
2023/03/12 10:25:00;;;;;;;11.20;3.03;;;22.70;83.30;;;;;;7403204;19;19918;-73
2023/03/12 10:27:33;;;;;;;13.35;2.83;;;22.40;83.80;;;;;;7407574;19;19911;-73
2023/03/12 10:30:01;;;;;;;12.30;2.33;;;22.40;83.70;;;;;;7408935;19;19919;-74
2023/03/12 10:32:45;;;;;;;9.80;2.20;;;21.80;83.40;;;;;;7408862;19;19915;-72
2023/03/12 10:35:15;;;;;;;9.98;2.45;;;22.00;84.00;;;;;;7408789;19;19918;-73
2023/03/12 10:38:16;;;;;;;11.35;2.95;;;22.00;83.60;;;;;;7409163;19;19913;-73
2023/03/12 10:40:42;;;;;;;9.07;2.13;;;22.30;83.80;;;;;;7409025;19;19919;-73
2023/03/12 10:43:09;;;;;;;9.77;2.05;;;22.70;82.30;;;;;;7408595;19;20574;-72
2023/03/12 10:45:52;;;;;;;10.60;2.30;;;23.20;81.60;;;;;;7407859;19;19931;-74
2023/03/12 10:48:24;;;;;;;9.65;2.28;;;23.60;79.80;;;;;;7373054;19;20258;-72
2023/03/12 10:51:00;;;;;;;8.80;2.30;;;23.70;79.70;;;;;;7407644;19;19919;-72
2023/03/12 10:53:30;;;;;;;10.93;2.78;;;24.50;78.10;;;;;;7408205;19;20326;-73
2023/03/12 10:56:14;;;;;;;7.22;2.47;;;24.80;77.50;;;;;;7407565;19;19914;-73
2023/03/12 10:58:41;;;;;;;9.65;2.72;;;24.90;76.40;;;;;;7406883;19;19926;-76
2023/03/12 11:01:24;;;;;;;9.95;2.20;;;24.60;77.00;;;;;;7376244;19;20394;-72
2023/03/12 11:03:52;;;;;;;11.05;2.60;;;23.90;78.50;;;;;;7402879;19;19956;-72
2023/03/12 11:06:24;;;;;;;8.55;2.42;;;22.80;80.20;;;;;;7408386;19;20246;-72
2023/03/12 11:09:13;;;;;;;9.40;2.50;;;22.90;80.40;;;;;;7407316;19;19922;-72
2023/03/12 11:11:39;;;;;;;10.07;2.45;;;22.00;81.60;;;;;;7405504;19;20334;-72
2023/03/12 11:14:15;;;;;;;6.82;2.25;;;22.70;81.70;;;;;;7374748;19;19926;-73
2023/03/12 11:16:41;;;;;;;7.95;2.53;;;23.00;81.20;;;;;;7407100;19;20363;-73
2023/03/12 11:19:12;;;;;;;6.85;2.40;;;23.10;80.10;;;;;;7405094;19;19914;-74
2023/03/12 11:21:39;;;;;;;13.48;2.72;;;23.10;81.00;;;;;;7403979;19;19921;-74
2023/03/12 11:24:11;;;;;;;9.85;2.92;;;23.50;79.20;;;;;;7406370;19;19918;-72
2023/03/12 11:26:45;;;;;;;10.93;3.28;;;23.30;80.00;;;;;;7407534;19;20277;-72
2023/03/12 11:29:15;;;;;;;10.15;2.08;;;22.70;81.10;;;;;;7406042;19;19943;-74
2023/03/12 11:31:55;;;;;;;9.50;2.92;;;22.80;81.20;;;;;;7406347;19;19915;-73
2023/03/12 11:34:26;;;;;;;12.48;2.40;;;22.70;81.30;;;;;;7405482;19;19959;-73
2023/03/12 11:37:13;;;;;;;13.20;2.70;;;22.50;81.70;;;;;;7406326;19;19914;-73
2023/03/12 11:39:57;;;;;;;7.75;2.35;;;22.90;81.50;;;;;;7405048;19;19918;-72
2023/03/12 11:42:50;;;;;;;8.73;2.03;;;22.90;81.30;;;;;;7407237;19;19927;-73
2023/03/12 11:45:50;;;;;;;9.90;2.28;;;22.70;81.20;;;;;;7407058;19;19922;-72
2023/03/12 11:48:27;;;;;;;9.02;2.00;;;22.20;82.10;;;;;;7380434;19;20329;-73
2023/03/12 11:51:05;;;;;;;8.60;2.33;;;22.70;81.90;;;;;;7406330;19;19982;-73
2023/03/12 11:53:43;;;;;;;9.23;2.53;;;22.90;81.90;;;;;;7406810;19;19918;-74
2023/03/12 11:56:21;;;;;;;9.80;2.45;;;23.50;79.90;;;;;;7368930;19;19978;-73
2023/03/12 11:58:51;;;;;;;;;;;23.30;79.40;;;;;;7408604;19;20347;-73
2023/03/12 12:01:23;;;;;;;7.18;1.73;;;22.60;80.30;;;;;;7404154;19;19939;-73
2023/03/12 12:04:23;;;;;;;7.38;2.03;;;21.30;82.50;;;;;;7401432;19;19918;-74
2023/03/12 12:07:27;;;;;;;6.13;2.08;;;22.30;82.10;;;;;;7403868;19;19918;-72
2023/03/12 12:10:12;;;;;;;6.63;1.83;;;22.50;81.20;;;;;;7405702;19;19919;-73
2023/03/12 12:13:07;;;;;;;7.68;2.45;;;22.80;81.30;;;;;;7400805;19;19922;-73
2023/03/12 12:15:37;;;;;;;7.20;2.13;;;22.70;81.00;;;;;;7403363;19;19966;-72
2023/03/12 12:18:34;;;;;;;8.85;2.55;;;23.00;80.70;;;;;;7405142;19;19922;-72
2023/03/12 12:21:15;;;;;;;9.40;2.08;;;22.30;81.90;;;;;;7406181;19;19922;-72
2023/03/12 12:24:14;;;;;;;6.00;2.03;;;22.50;81.50;;;;;;7402796;19;20327;-74
2023/03/12 12:27:02;;;;;;;5.78;1.52;;;21.90;83.00;;;;;;7402705;19;19906;-72
2023/03/12 12:29:42;;;;;;;6.93;1.67;;;21.80;82.40;;;;;;7384976;19;19920;-75
2023/03/12 12:32:19;;;;;;;6.50;2.03;;;22.40;81.90;;;;;;7404200;19;20321;-74
2023/03/12 12:34:56;;;;;;;10.35;2.88;;;22.70;81.80;;;;;;7408584;19;19914;-73
2023/03/12 12:37:26;;;;;;;9.15;2.25;;;22.50;81.00;;;;;;7402430;19;19937;-73
2023/03/12 12:40:13;;;;;;;10.18;2.92;;;22.00;82.50;;;;;;7406453;19;19938;-74
2023/03/12 12:43:04;;;;;;;8.02;1.80;;;21.90;83.20;;;;;;7407078;19;20259;-72
2023/03/12 12:45:29;;;;;;;8.10;2.83;;;22.20;82.00;;;;;;7404600;19;19930;-74
2023/03/12 12:48:11;;;;;;;9.68;2.75;;;21.70;83.30;;;;;;7408690;19;19921;-75
2023/03/12 12:50:38;;;;;;;9.93;2.42;;;21.30;85.50;;;;;;7405969;19;19925;-74
2023/03/12 12:53:25;;;;;;;9.15;2.70;;;21.30;85.90;;;;;;7403359;19;19925;-74
2023/03/12 12:56:16;;;;;;;10.25;2.60;;;21.60;85.60;;;;;;7403273;19;19987;-75
2023/03/12 12:58:54;;;;;;;7.28;2.10;;;21.90;84.90;;;;;;7406228;19;19907;-74